sensor_id;sensor_type;location;lat;lon;timestamp;temperature;humidity
27258;DHT22;40832;49.986;8.672;2022-07-01T00:02:36;28.40;48.10
27258;DHT22;40832;49.986;8.672;2022-07-01T00:07:37;28.40;48.10
27258;DHT22;40832;49.986;8.672;2022-07-01T00:12:38;28.40;48.10
27258;DHT22;40832;49.986;8.672;2022-07-01T00:17:40;28.40;48.20
27258;DHT22;40832;49.986;8.672;2022-07-01T00:22:41;28.40;48.20
27258;DHT22;40832;49.986;8.672;2022-07-01T00:27:42;28.30;48.20
27258;DHT22;40832;49.986;8.672;2022-07-01T00:32:44;28.30;48.20
27258;DHT22;40832;49.986;8.672;2022-07-01T00:37:45;28.40;48.30
27258;DHT22;40832;49.986;8.672;2022-07-01T00:42:46;28.40;48.40
27258;DHT22;40832;49.986;8.672;2022-07-01T00:47:49;28.40;48.30
27258;DHT22;40832;49.986;8.672;2022-07-01T00:52:50;28.40;48.30
27258;DHT22;40832;49.986;8.672;2022-07-01T00:57:51;28.40;48.30
27258;DHT22;40832;49.986;8.672;2022-07-01T01:02:53;28.40;48.30
27258;DHT22;40832;49.986;8.672;2022-07-01T01:07:54;28.40;48.30
27258;DHT22;40832;49.986;8.672;2022-07-01T01:12:55;28.40;48.30
27258;DHT22;40832;49.986;8.672;2022-07-01T01:17:58;28.40;48.30
27258;DHT22;40832;49.986;8.672;2022-07-01T01:23:00;28.40;48.30
27258;DHT22;40832;49.986;8.672;2022-07-01T01:28:02;28.40;48.30
27258;DHT22;40832;49.986;8.672;2022-07-01T01:33:03;28.40;48.30
27258;DHT22;40832;49.986;8.672;2022-07-01T01:38:05;28.30;48.20
27258;DHT22;40832;49.986;8.672;2022-07-01T01:43:06;28.30;48.20
27258;DHT22;40832;49.986;8.672;2022-07-01T01:48:07;28.30;48.10
27258;DHT22;40832;49.986;8.672;2022-07-01T01:53:09;28.30;48.20
27258;DHT22;40832;49.986;8.672;2022-07-01T01:58:10;28.20;48.10
27258;DHT22;40832;49.986;8.672;2022-07-01T02:03:11;28.20;48.10
27258;DHT22;40832;49.986;8.672;2022-07-01T02:08:13;28.20;48.20
27258;DHT22;40832;49.986;8.672;2022-07-01T02:13:14;28.20;48.20
27258;DHT22;40832;49.986;8.672;2022-07-01T02:18:15;28.20;48.20
27258;DHT22;40832;49.986;8.672;2022-07-01T02:23:17;28.10;48.20
27258;DHT22;40832;49.986;8.672;2022-07-01T02:28:18;28.10;48.20
27258;DHT22;40832;49.986;8.672;2022-07-01T02:33:19;28.00;48.20
27258;DHT22;40832;49.986;8.672;2022-07-01T02:38:21;28.00;48.20
27258;DHT22;40832;49.986;8.672;2022-07-01T02:43:22;28.00;48.20
27258;DHT22;40832;49.986;8.672;2022-07-01T02:48:23;28.00;48.30
27258;DHT22;40832;49.986;8.672;2022-07-01T02:53:25;28.00;48.30
27258;DHT22;40832;49.986;8.672;2022-07-01T02:58:26;28.00;48.30
27258;DHT22;40832;49.986;8.672;2022-07-01T03:03:27;28.00;48.30
27258;DHT22;40832;49.986;8.672;2022-07-01T03:08:29;28.00;48.30
27258;DHT22;40832;49.986;8.672;2022-07-01T03:13:30;28.00;48.30
27258;DHT22;40832;49.986;8.672;2022-07-01T03:18:31;28.00;48.20
27258;DHT22;40832;49.986;8.672;2022-07-01T03:23:33;28.00;48.20
27258;DHT22;40832;49.986;8.672;2022-07-01T03:28:34;28.00;48.30
27258;DHT22;40832;49.986;8.672;2022-07-01T03:33:34;28.00;48.20
27258;DHT22;40832;49.986;8.672;2022-07-01T03:38:37;28.00;48.20
27258;DHT22;40832;49.986;8.672;2022-07-01T03:43:37;28.00;48.20
27258;DHT22;40832;49.986;8.672;2022-07-01T03:48:38;28.00;48.20
27258;DHT22;40832;49.986;8.672;2022-07-01T03:53:41;27.90;48.10
27258;DHT22;40832;49.986;8.672;2022-07-01T03:58:41;27.90;48.10
27258;DHT22;40832;49.986;8.672;2022-07-01T04:03:42;27.90;48.10
27258;DHT22;40832;49.986;8.672;2022-07-01T04:08:46;27.90;48.20
27258;DHT22;40832;49.986;8.672;2022-07-01T04:13:47;27.80;48.10
27258;DHT22;40832;49.986;8.672;2022-07-01T04:18:48;27.90;48.20
27258;DHT22;40832;49.986;8.672;2022-07-01T04:23:50;27.80;48.10
27258;DHT22;40832;49.986;8.672;2022-07-01T04:28:51;27.80;48.20
27258;DHT22;40832;49.986;8.672;2022-07-01T04:33:52;27.80;48.20
27258;DHT22;40832;49.986;8.672;2022-07-01T04:38:55;27.80;48.20
27258;DHT22;40832;49.986;8.672;2022-07-01T04:43:56;27.70;48.20
27258;DHT22;40832;49.986;8.672;2022-07-01T04:48:56;27.70;48.20
27258;DHT22;40832;49.986;8.672;2022-07-01T04:53:59;27.70;48.20
27258;DHT22;40832;49.986;8.672;2022-07-01T04:59:00;27.70;48.30
27258;DHT22;40832;49.986;8.672;2022-07-01T05:04:01;27.70;48.30
27258;DHT22;40832;49.986;8.672;2022-07-01T05:09:03;27.70;48.20
27258;DHT22;40832;49.986;8.672;2022-07-01T05:14:04;27.70;48.30
27258;DHT22;40832;49.986;8.672;2022-07-01T05:19:05;27.70;48.20
27258;DHT22;40832;49.986;8.672;2022-07-01T05:24:08;27.70;48.80
27258;DHT22;40832;49.986;8.672;2022-07-01T05:29:09;27.60;48.20
27258;DHT22;40832;49.986;8.672;2022-07-01T05:34:10;27.60;48.20
27258;DHT22;40832;49.986;8.672;2022-07-01T05:39:12;27.60;48.10
27258;DHT22;40832;49.986;8.672;2022-07-01T05:44:13;27.70;48.10
27258;DHT22;40832;49.986;8.672;2022-07-01T05:49:14;27.60;48.10
27258;DHT22;40832;49.986;8.672;2022-07-01T05:54:16;27.60;48.10
27258;DHT22;40832;49.986;8.672;2022-07-01T05:59:17;27.50;48.10
27258;DHT22;40832;49.986;8.672;2022-07-01T06:04:18;27.50;48.10
27258;DHT22;40832;49.986;8.672;2022-07-01T06:09:20;27.50;48.10
27258;DHT22;40832;49.986;8.672;2022-07-01T06:14:21;27.50;48.10
27258;DHT22;40832;49.986;8.672;2022-07-01T06:19:22;27.50;48.20
27258;DHT22;40832;49.986;8.672;2022-07-01T06:24:24;27.40;48.10
27258;DHT22;40832;49.986;8.672;2022-07-01T06:29:25;27.40;48.10
27258;DHT22;40832;49.986;8.672;2022-07-01T06:34:26;27.40;48.20
27258;DHT22;40832;49.986;8.672;2022-07-01T06:39:28;27.30;48.10
27258;DHT22;40832;49.986;8.672;2022-07-01T06:44:29;27.30;48.10
27258;DHT22;40832;49.986;8.672;2022-07-01T06:49:30;27.30;48.20
27258;DHT22;40832;49.986;8.672;2022-07-01T06:54:32;27.30;48.20
27258;DHT22;40832;49.986;8.672;2022-07-01T06:59:33;27.30;48.20
27258;DHT22;40832;49.986;8.672;2022-07-01T07:04:34;27.30;48.20
27258;DHT22;40832;49.986;8.672;2022-07-01T07:09:37;27.30;48.20
27258;DHT22;40832;49.986;8.672;2022-07-01T07:14:38;27.30;48.20
27258;DHT22;40832;49.986;8.672;2022-07-01T07:19:39;27.30;48.20
27258;DHT22;40832;49.986;8.672;2022-07-01T07:24:41;27.30;48.20
27258;DHT22;40832;49.986;8.672;2022-07-01T07:29:42;27.30;48.20
27258;DHT22;40832;49.986;8.672;2022-07-01T07:34:43;27.30;48.20
27258;DHT22;40832;49.986;8.672;2022-07-01T07:39:45;27.30;48.20
27258;DHT22;40832;49.986;8.672;2022-07-01T07:44:46;27.30;48.10
27258;DHT22;40832;49.986;8.672;2022-07-01T07:49:47;27.20;48.10
27258;DHT22;40832;49.986;8.672;2022-07-01T07:54:49;27.20;48.70
27258;DHT22;40832;49.986;8.672;2022-07-01T07:59:50;27.20;48.10
27258;DHT22;40832;49.986;8.672;2022-07-01T08:04:51;27.20;48.10
27258;DHT22;40832;49.986;8.672;2022-07-01T08:09:53;27.10;48.10
27258;DHT22;40832;49.986;8.672;2022-07-01T08:14:54;27.10;48.10
27258;DHT22;40832;49.986;8.672;2022-07-01T08:19:55;27.10;48.10
27258;DHT22;40832;49.986;8.672;2022-07-01T08:24:57;27.10;48.20
27258;DHT22;40832;49.986;8.672;2022-07-01T08:29:58;27.10;48.20
27258;DHT22;40832;49.986;8.672;2022-07-01T08:34:59;27.00;48.10
27258;DHT22;40832;49.986;8.672;2022-07-01T08:40:01;27.00;48.10
27258;DHT22;40832;49.986;8.672;2022-07-01T08:45:03;27.00;48.20
27258;DHT22;40832;49.986;8.672;2022-07-01T08:50:04;27.00;48.30
27258;DHT22;40832;49.986;8.672;2022-07-01T08:55:07;27.00;48.30
27258;DHT22;40832;49.986;8.672;2022-07-01T09:00:09;27.00;48.30
27258;DHT22;40832;49.986;8.672;2022-07-01T09:05:10;27.00;48.30
27258;DHT22;40832;49.986;8.672;2022-07-01T09:10:17;27.00;48.30
27258;DHT22;40832;49.986;8.672;2022-07-01T09:15:26;27.00;48.30
27258;DHT22;40832;49.986;8.672;2022-07-01T09:20:29;27.00;48.40
27258;DHT22;40832;49.986;8.672;2022-07-01T09:25:32;27.00;48.30
27258;DHT22;40832;49.986;8.672;2022-07-01T09:30:34;27.00;48.20
27258;DHT22;40832;49.986;8.672;2022-07-01T09:35:35;27.00;48.20
27258;DHT22;40832;49.986;8.672;2022-07-01T09:40:53;26.90;48.10
27258;DHT22;40832;49.986;8.672;2022-07-01T09:45:56;26.90;48.20
27258;DHT22;40832;49.986;8.672;2022-07-01T09:50:58;26.90;48.50
27258;DHT22;40832;49.986;8.672;2022-07-01T09:56:00;26.90;48.60
27258;DHT22;40832;49.986;8.672;2022-07-01T10:01:03;26.90;48.70
27258;DHT22;40832;49.986;8.672;2022-07-01T10:06:14;26.80;48.70
27258;DHT22;40832;49.986;8.672;2022-07-01T10:11:46;26.80;48.70
27258;DHT22;40832;49.986;8.672;2022-07-01T10:16:50;26.80;48.70
27258;DHT22;40832;49.986;8.672;2022-07-01T10:21:51;26.80;48.70
27258;DHT22;40832;49.986;8.672;2022-07-01T10:26:59;26.70;48.60
27258;DHT22;40832;49.986;8.672;2022-07-01T10:32:02;26.70;48.60
27258;DHT22;40832;49.986;8.672;2022-07-01T10:37:05;26.70;48.70
27258;DHT22;40832;49.986;8.672;2022-07-01T10:42:07;26.70;48.70
27258;DHT22;40832;49.986;8.672;2022-07-01T10:47:08;26.70;48.70
27258;DHT22;40832;49.986;8.672;2022-07-01T10:52:10;26.70;48.70
27258;DHT22;40832;49.986;8.672;2022-07-01T10:57:29;26.70;48.70
27258;DHT22;40832;49.986;8.672;2022-07-01T11:02:32;26.70;48.70
27258;DHT22;40832;49.986;8.672;2022-07-01T11:07:35;26.70;48.60
27258;DHT22;40832;49.986;8.672;2022-07-01T11:12:40;26.70;48.60
27258;DHT22;40832;49.986;8.672;2022-07-01T11:17:42;26.70;49.30
27258;DHT22;40832;49.986;8.672;2022-07-01T11:22:43;26.70;48.60
27258;DHT22;40832;49.986;8.672;2022-07-01T11:27:48;26.70;48.60
27258;DHT22;40832;49.986;8.672;2022-07-01T11:32:50;26.70;48.60
27258;DHT22;40832;49.986;8.672;2022-07-01T11:37:51;26.70;48.50
27258;DHT22;40832;49.986;8.672;2022-07-01T11:42:54;26.80;48.60
27258;DHT22;40832;49.986;8.672;2022-07-01T11:47:55;26.70;48.50
27258;DHT22;40832;49.986;8.672;2022-07-01T11:52:56;26.70;48.50
27258;DHT22;40832;49.986;8.672;2022-07-01T11:57:58;26.70;48.50
27258;DHT22;40832;49.986;8.672;2022-07-01T12:02:59;26.70;49.10
27258;DHT22;40832;49.986;8.672;2022-07-01T12:08:00;26.60;48.40
27258;DHT22;40832;49.986;8.672;2022-07-01T12:13:20;26.60;48.50
27258;DHT22;40832;49.986;8.672;2022-07-01T12:18:21;26.60;48.50
27258;DHT22;40832;49.986;8.672;2022-07-01T12:23:22;26.60;48.50
27258;DHT22;40832;49.986;8.672;2022-07-01T12:28:29;26.60;48.50
27258;DHT22;40832;49.986;8.672;2022-07-01T12:33:31;26.60;48.50
27258;DHT22;40832;49.986;8.672;2022-07-01T12:38:32;26.50;48.50
27258;DHT22;40832;49.986;8.672;2022-07-01T12:43:34;26.50;48.50
27258;DHT22;40832;49.986;8.672;2022-07-01T12:48:47;26.50;48.60
27258;DHT22;40832;49.986;8.672;2022-07-01T12:53:48;26.50;48.60
27258;DHT22;40832;49.986;8.672;2022-07-01T12:58:50;26.50;48.60
27258;DHT22;40832;49.986;8.672;2022-07-01T13:03:51;26.50;48.60
27258;DHT22;40832;49.986;8.672;2022-07-01T13:08:53;26.50;48.60
27258;DHT22;40832;49.986;8.672;2022-07-01T13:13:55;26.60;48.60
27258;DHT22;40832;49.986;8.672;2022-07-01T13:18:56;26.60;48.50
27258;DHT22;40832;49.986;8.672;2022-07-01T13:23:56;26.60;48.50
27258;DHT22;40832;49.986;8.672;2022-07-01T13:28:59;26.60;48.50
27258;DHT22;40832;49.986;8.672;2022-07-01T13:33:59;26.60;48.50
27258;DHT22;40832;49.986;8.672;2022-07-01T13:39:00;26.60;48.50
27258;DHT22;40832;49.986;8.672;2022-07-01T13:44:03;26.60;48.50
27258;DHT22;40832;49.986;8.672;2022-07-01T13:49:04;26.70;48.50
27258;DHT22;40832;49.986;8.672;2022-07-01T13:54:04;26.60;48.60
27258;DHT22;40832;49.986;8.672;2022-07-01T13:59:07;26.60;48.40
27258;DHT22;40832;49.986;8.672;2022-07-01T14:04:08;26.60;48.40
27258;DHT22;40832;49.986;8.672;2022-07-01T14:09:09;26.50;48.30
27258;DHT22;40832;49.986;8.672;2022-07-01T14:14:11;26.50;48.40
27258;DHT22;40832;49.986;8.672;2022-07-01T14:19:20;26.50;48.40
27258;DHT22;40832;49.986;8.672;2022-07-01T14:24:24;26.50;48.40
27258;DHT22;40832;49.986;8.672;2022-07-01T14:29:26;26.50;48.40
27258;DHT22;40832;49.986;8.672;2022-07-01T14:34:27;26.50;48.40
27258;DHT22;40832;49.986;8.672;2022-07-01T14:39:28;26.40;48.30
27258;DHT22;40832;49.986;8.672;2022-07-01T14:44:30;26.40;48.30
27258;DHT22;40832;49.986;8.672;2022-07-01T14:49:31;26.40;48.30
27258;DHT22;40832;49.986;8.672;2022-07-01T14:54:32;26.40;48.40
27258;DHT22;40832;49.986;8.672;2022-07-01T14:59:34;26.40;48.40
27258;DHT22;40832;49.986;8.672;2022-07-01T15:04:35;26.40;48.40
27258;DHT22;40832;49.986;8.672;2022-07-01T15:09:36;26.40;48.40
27258;DHT22;40832;49.986;8.672;2022-07-01T15:14:38;26.50;48.40
27258;DHT22;40832;49.986;8.672;2022-07-01T15:19:40;26.50;48.90
27258;DHT22;40832;49.986;8.672;2022-07-01T15:24:41;26.50;48.30
27258;DHT22;40832;49.986;8.672;2022-07-01T15:29:43;26.50;48.20
27258;DHT22;40832;49.986;8.672;2022-07-01T15:34:44;26.50;48.10
27258;DHT22;40832;49.986;8.672;2022-07-01T15:39:45;26.50;48.10
27258;DHT22;40832;49.986;8.672;2022-07-01T15:44:47;26.50;48.10
27258;DHT22;40832;49.986;8.672;2022-07-01T15:49:48;26.60;48.00
27258;DHT22;40832;49.986;8.672;2022-07-01T15:54:49;26.50;47.90
27258;DHT22;40832;49.986;8.672;2022-07-01T15:59:51;26.50;47.80
27258;DHT22;40832;49.986;8.672;2022-07-01T16:04:52;26.50;47.70
27258;DHT22;40832;49.986;8.672;2022-07-01T16:09:58;26.50;47.70
27258;DHT22;40832;49.986;8.672;2022-07-01T16:15:03;26.40;47.50
27258;DHT22;40832;49.986;8.672;2022-07-01T16:20:06;26.50;47.50
27258;DHT22;40832;49.986;8.672;2022-07-01T16:25:08;26.40;47.30
27258;DHT22;40832;49.986;8.672;2022-07-01T16:30:12;26.40;47.10
27258;DHT22;40832;49.986;8.672;2022-07-01T16:35:13;26.40;47.00
27258;DHT22;40832;49.986;8.672;2022-07-01T16:40:16;26.40;47.00
27258;DHT22;40832;49.986;8.672;2022-07-01T16:45:27;26.40;47.00
27258;DHT22;40832;49.986;8.672;2022-07-01T16:50:35;26.40;46.90
27258;DHT22;40832;49.986;8.672;2022-07-01T16:55:41;26.40;46.90
27258;DHT22;40832;49.986;8.672;2022-07-01T17:00:43;26.50;46.90
27258;DHT22;40832;49.986;8.672;2022-07-01T17:05:47;26.50;46.70
27258;DHT22;40832;49.986;8.672;2022-07-01T17:10:50;26.50;46.50
27258;DHT22;40832;49.986;8.672;2022-07-01T17:15:53;26.60;46.50
27258;DHT22;40832;49.986;8.672;2022-07-01T17:20:55;26.60;46.30
27258;DHT22;40832;49.986;8.672;2022-07-01T17:25:57;26.60;46.20
27258;DHT22;40832;49.986;8.672;2022-07-01T17:31:10;26.60;46.10
27258;DHT22;40832;49.986;8.672;2022-07-01T17:36:14;26.60;45.80
27258;DHT22;40832;49.986;8.672;2022-07-01T17:41:18;26.60;45.70
27258;DHT22;40832;49.986;8.672;2022-07-01T17:46:21;26.60;45.60
27258;DHT22;40832;49.986;8.672;2022-07-01T17:51:22;26.60;45.40
27258;DHT22;40832;49.986;8.672;2022-07-01T17:56:25;26.60;45.40
27258;DHT22;40832;49.986;8.672;2022-07-01T18:01:31;26.60;45.30
27258;DHT22;40832;49.986;8.672;2022-07-01T18:06:33;26.50;45.30
27258;DHT22;40832;49.986;8.672;2022-07-01T18:11:40;26.50;45.30
27258;DHT22;40832;49.986;8.672;2022-07-01T18:16:55;26.50;45.40
27258;DHT22;40832;49.986;8.672;2022-07-01T18:21:57;26.50;45.40
27258;DHT22;40832;49.986;8.672;2022-07-01T18:26:59;26.50;45.40
27258;DHT22;40832;49.986;8.672;2022-07-01T18:32:07;26.50;45.40
27258;DHT22;40832;49.986;8.672;2022-07-01T18:37:10;26.50;45.40
27258;DHT22;40832;49.986;8.672;2022-07-01T18:42:11;26.50;45.50
27258;DHT22;40832;49.986;8.672;2022-07-01T18:47:13;26.40;45.40
27258;DHT22;40832;49.986;8.672;2022-07-01T18:52:14;26.40;45.50
27258;DHT22;40832;49.986;8.672;2022-07-01T18:57:15;26.40;45.50
27258;DHT22;40832;49.986;8.672;2022-07-01T19:02:18;26.40;45.50
27258;DHT22;40832;49.986;8.672;2022-07-01T19:07:18;26.40;45.50
27258;DHT22;40832;49.986;8.672;2022-07-01T19:12:19;26.50;45.50
27258;DHT22;40832;49.986;8.672;2022-07-01T19:17:22;26.50;45.60
27258;DHT22;40832;49.986;8.672;2022-07-01T19:22:23;26.50;45.50
27258;DHT22;40832;49.986;8.672;2022-07-01T19:27:24;26.50;45.50
27258;DHT22;40832;49.986;8.672;2022-07-01T19:32:26;26.50;45.50
27258;DHT22;40832;49.986;8.672;2022-07-01T19:37:27;26.50;45.50
27258;DHT22;40832;49.986;8.672;2022-07-01T19:42:28;26.50;45.40
27258;DHT22;40832;49.986;8.672;2022-07-01T19:47:30;26.50;45.40
27258;DHT22;40832;49.986;8.672;2022-07-01T19:52:31;26.50;45.40
27258;DHT22;40832;49.986;8.672;2022-07-01T19:57:32;26.50;45.50
27258;DHT22;40832;49.986;8.672;2022-07-01T20:02:34;26.50;45.60
27258;DHT22;40832;49.986;8.672;2022-07-01T20:07:35;26.40;45.60
27258;DHT22;40832;49.986;8.672;2022-07-01T20:12:36;26.40;45.50
27258;DHT22;40832;49.986;8.672;2022-07-01T20:17:39;26.40;47.60
27258;DHT22;40832;49.986;8.672;2022-07-01T20:22:40;26.40;47.70
27258;DHT22;40832;49.986;8.672;2022-07-01T20:27:41;26.40;47.50
27258;DHT22;40832;49.986;8.672;2022-07-01T20:32:43;26.40;47.30
27258;DHT22;40832;49.986;8.672;2022-07-01T20:37:45;26.40;47.20
27258;DHT22;40832;49.986;8.672;2022-07-01T20:42:46;26.40;47.20
27258;DHT22;40832;49.986;8.672;2022-07-01T20:47:48;26.30;47.00
27258;DHT22;40832;49.986;8.672;2022-07-01T20:52:49;26.30;46.90
27258;DHT22;40832;49.986;8.672;2022-07-01T20:57:50;26.30;46.70
27258;DHT22;40832;49.986;8.672;2022-07-01T21:02:52;26.30;46.60
27258;DHT22;40832;49.986;8.672;2022-07-01T21:07:53;26.40;46.60
27258;DHT22;40832;49.986;8.672;2022-07-01T21:12:54;26.40;46.50
27258;DHT22;40832;49.986;8.672;2022-07-01T21:17:56;26.40;46.40
27258;DHT22;40832;49.986;8.672;2022-07-01T21:22:57;26.40;46.30
27258;DHT22;40832;49.986;8.672;2022-07-01T21:27:58;26.40;46.30
27258;DHT22;40832;49.986;8.672;2022-07-01T21:33:01;26.40;46.30
27258;DHT22;40832;49.986;8.672;2022-07-01T21:38:03;26.40;46.20
27258;DHT22;40832;49.986;8.672;2022-07-01T21:43:04;26.40;46.30
27258;DHT22;40832;49.986;8.672;2022-07-01T21:48:07;26.40;46.30
27258;DHT22;40832;49.986;8.672;2022-07-01T21:53:09;26.30;46.20
27258;DHT22;40832;49.986;8.672;2022-07-01T21:58:15;26.30;46.20
27258;DHT22;40832;49.986;8.672;2022-07-01T22:03:19;26.30;46.20
27258;DHT22;40832;49.986;8.672;2022-07-01T22:08:21;26.20;46.10
27258;DHT22;40832;49.986;8.672;2022-07-01T22:13:24;26.20;46.10
27258;DHT22;40832;49.986;8.672;2022-07-01T22:18:29;26.20;46.10
27258;DHT22;40832;49.986;8.672;2022-07-01T22:23:31;26.20;46.10
27258;DHT22;40832;49.986;8.672;2022-07-01T22:28:34;26.10;46.20
27258;DHT22;40832;49.986;8.672;2022-07-01T22:33:39;26.10;46.20
27258;DHT22;40832;49.986;8.672;2022-07-01T22:38:41;26.10;46.20
27258;DHT22;40832;49.986;8.672;2022-07-01T22:43:42;26.10;46.20
27258;DHT22;40832;49.986;8.672;2022-07-01T22:48:51;26.10;46.30
27258;DHT22;40832;49.986;8.672;2022-07-01T22:54:03;26.10;46.40
27258;DHT22;40832;49.986;8.672;2022-07-01T22:59:13;26.10;46.40
27258;DHT22;40832;49.986;8.672;2022-07-01T23:04:17;26.20;46.40
27258;DHT22;40832;49.986;8.672;2022-07-01T23:09:25;26.10;46.40
27258;DHT22;40832;49.986;8.672;2022-07-01T23:14:28;26.10;46.40
27258;DHT22;40832;49.986;8.672;2022-07-01T23:19:32;26.10;46.40
27258;DHT22;40832;49.986;8.672;2022-07-01T23:24:32;26.10;46.40
27258;DHT22;40832;49.986;8.672;2022-07-01T23:29:34;26.10;46.40
27258;DHT22;40832;49.986;8.672;2022-07-01T23:34:40;26.10;46.30
27258;DHT22;40832;49.986;8.672;2022-07-01T23:39:44;26.10;46.30
27258;DHT22;40832;49.986;8.672;2022-07-01T23:44:45;26.00;46.30
27258;DHT22;40832;49.986;8.672;2022-07-01T23:49:47;26.00;46.40
27258;DHT22;40832;49.986;8.672;2022-07-01T23:54:48;26.00;46.40
27258;DHT22;40832;49.986;8.672;2022-07-01T23:59:49;26.00;46.40
